Time;durP1;ratioP1;P1;durP2;ratioP2;P2;SDS_P1;SDS_P2;PMS_P1;PMS_P2;Temp;Humidity;BMP_temperature;BMP_pressure;BME280_temperature;BME280_humidity;BME280_pressure;Samples;Min_cycle;Max_cycle;Signal;HPM_P1;HPM_P2
2022/10/10 00:00:17;;;;;;;;;;;15.70;72.40;;;;;;5074878;28;19969;-90
2022/10/10 00:02:42;;;;;;;;;;;15.60;72.90;;;;;;5074902;28;19938;-88
2022/10/10 00:05:08;;;;;;;;;;;15.60;73.20;;;;;;5074797;28;20416;-90
2022/10/10 00:07:33;;;;;;;;;;;15.50;73.90;;;;;;5074770;28;19944;-89
2022/10/10 00:09:59;;;;;;;;;;;15.50;74.30;;;;;;5074796;28;19941;-89
2022/10/10 00:12:24;;;;;;;;;;;15.50;74.50;;;;;;5074685;28;19940;-89
2022/10/10 00:14:50;;;;;;;;;;;15.40;75.30;;;;;;5074631;28;19954;-89
2022/10/10 00:17:15;;;;;;;;;;;15.40;75.20;;;;;;5074620;28;19970;-90
2022/10/10 00:19:41;;;;;;;;;;;15.40;75.40;;;;;;5074490;28;19965;-89
2022/10/10 00:22:06;;;;;;;;;;;15.40;75.50;;;;;;5074760;28;19947;-89
2022/10/10 00:24:32;;;;;;;;;;;15.50;75.40;;;;;;5074386;28;19938;-89
2022/10/10 00:26:57;;;;;;;;;;;15.60;75.40;;;;;;5074674;28;19993;-90
2022/10/10 00:29:23;;;;;;;;;;;15.60;74.70;;;;;;5074367;28;20394;-88
2022/10/10 00:31:48;;;;;;;;;;;15.70;74.30;;;;;;5074325;28;19936;-89
2022/10/10 00:34:14;;;;;;;;;;;15.70;75.60;;;;;;5074238;28;19950;-89
2022/10/10 00:36:39;;;;;;;;;;;15.60;75.70;;;;;;5074453;28;19961;-89
2022/10/10 00:39:05;;;;;;;;;;;15.50;75.80;;;;;;5074040;28;20433;-88
2022/10/10 00:41:31;;;;;;;;;;;15.50;75.60;;;;;;5074048;28;20405;-90
2022/10/10 00:44:07;;;;;;;;;;;15.30;76.00;;;;;;5074005;28;19944;-90
2022/10/10 00:46:33;;;;;;;;;;;15.30;76.80;;;;;;5074042;28;19935;-90
2022/10/10 00:48:58;;;;;;;;;;;15.40;76.80;;;;;;5073981;28;20078;-90
2022/10/10 00:51:24;;;;;;;;;;;15.30;76.20;;;;;;5073749;28;19951;-89
2022/10/10 00:54:01;;;;;;;;;;;15.40;74.70;;;;;;5056058;28;19948;-89
2022/10/10 00:56:29;;;;;;;;;;;15.40;74.40;;;;;;5073857;28;20390;-89
2022/10/10 00:58:56;;;;;;;;;;;15.40;73.90;;;;;;5073760;28;19974;-89
2022/10/10 01:01:22;;;;;;;;;;;15.50;73.60;;;;;;5073612;28;20013;-90
2022/10/10 01:03:48;;;;;;;;;;;15.70;73.20;;;;;;5073732;28;20502;-90
2022/10/10 01:06:13;;;;;;;;;;;15.70;73.10;;;;;;5073671;28;20409;-90
2022/10/10 01:08:39;;;;;;;;;;;15.80;75.70;;;;;;5073588;28;19935;-90
2022/10/10 01:11:07;;;;;;;;;;;15.80;75.40;;;;;;5073525;28;20022;-89
2022/10/10 01:13:50;;;;;;;;;;;15.90;74.30;;;;;;5073475;28;19939;-89
2022/10/10 01:16:26;;;;;;;;;;;15.80;76.50;;;;;;5073523;28;19943;-89
2022/10/10 01:18:57;;;;;;;;;;;15.80;76.70;;;;;;5073474;28;19938;-90
2022/10/10 01:21:23;;;;;;;;;;;15.60;77.30;;;;;;5073367;28;19959;-90
2022/10/10 01:24:07;;;;;;;;;;;15.50;77.70;;;;;;5073421;28;20033;-89
2022/10/10 01:26:32;;;;;;;;;;;15.50;77.30;;;;;;5073322;28;20314;-90
2022/10/10 01:29:01;;;;;;;;;;;15.40;77.50;;;;;;5073349;28;19997;-90
2022/10/10 01:31:28;;;;;;;;;;;15.40;77.40;;;;;;5073339;28;19942;-89
2022/10/10 01:33:59;;;;;;;;;;;15.40;77.50;;;;;;5073298;28;20309;-89
2022/10/10 01:36:45;;;;;;;;;;;15.40;77.10;;;;;;5073263;28;19942;-90
2022/10/10 01:39:20;;;;;;;;;;;15.40;77.50;;;;;;5072430;28;20028;-89
2022/10/10 01:42:08;;;;;;;;;;;15.40;77.00;;;;;;5073188;28;19941;-90
2022/10/10 01:44:34;;;;;;;;;;;15.40;76.50;;;;;;5064678;28;19987;-89
2022/10/10 01:46:59;;;;;;;;;;;15.40;76.80;;;;;;5072671;28;19973;-89
2022/10/10 01:49:28;;;;;;;;;;;15.40;77.80;;;;;;5073100;28;19943;-89
2022/10/10 01:52:02;;;;;;;;;;;15.40;78.20;;;;;;5073133;28;19960;-89
2022/10/10 01:54:45;;;;;;;;;;;15.40;77.20;;;;;;5073063;28;19935;-89
2022/10/10 01:57:23;;;;;;;;;;;15.50;74.10;;;;;;5073035;28;19945;-89
2022/10/10 01:59:51;;;;;;;;;;;15.60;72.60;;;;;;5072943;28;20006;-89
2022/10/10 02:02:28;;;;;;;;;;;15.70;72.10;;;;;;5072997;28;19941;-89
2022/10/10 02:04:59;;;;;;;;;;;15.70;71.70;;;;;;5072904;28;19977;-89
2022/10/10 02:07:34;;;;;;;;;;;15.80;71.40;;;;;;5072963;28;20051;-88
2022/10/10 02:10:01;;;;;;;;;;;15.80;70.80;;;;;;5072932;28;19986;-90
2022/10/10 02:12:28;;;;;;;;;;;15.80;70.40;;;;;;5072881;28;20356;-89
2022/10/10 02:14:55;;;;;;;;;;;15.80;70.20;;;;;;5054875;28;20377;-89
2022/10/10 02:17:23;;;;;;;;;;;15.90;70.30;;;;;;5072880;28;19975;-90
2022/10/10 02:19:50;;;;;;;;;;;15.90;71.10;;;;;;5072782;28;19966;-89
2022/10/10 02:22:17;;;;;;;;;;;16.00;71.10;;;;;;5072834;28;20406;-89
2022/10/10 02:24:42;;;;;;;;;;;16.00;70.70;;;;;;5072782;28;19949;-88
2022/10/10 02:27:13;;;;;;;;;;;16.00;69.80;;;;;;5072773;28;19939;-89
2022/10/10 02:29:40;;;;;;;;;;;16.00;69.40;;;;;;5072783;28;19947;-89
2022/10/10 02:32:09;;;;;;;;;;;16.10;69.20;;;;;;5072710;28;19944;-89
2022/10/10 02:34:36;;;;;;;;;;;16.10;69.10;;;;;;5072644;28;20394;-89
2022/10/10 02:37:04;;;;;;;;;;;16.10;69.00;;;;;;5072650;28;19981;-89
2022/10/10 02:39:34;;;;;;;;;;;16.10;69.40;;;;;;5072412;28;19972;-90
2022/10/10 02:41:59;;;;;;;;;;;16.10;70.00;;;;;;5072591;28;20385;-89
2022/10/10 02:44:26;;;;;;;;;;;16.10;70.40;;;;;;5072492;28;20040;-90
2022/10/10 02:46:51;;;;;;;;;;;16.10;69.30;;;;;;5072584;28;19936;-90
2022/10/10 02:49:25;;;;;;;;;;;16.10;69.10;;;;;;5072536;28;20036;-89
2022/10/10 02:51:51;;;;;;;;;;;16.10;69.00;;;;;;5072322;28;19956;-89
2022/10/10 02:54:16;;;;;;;;;;;16.20;70.70;;;;;;5072452;28;20310;-89
2022/10/10 02:56:42;;;;;;;;;;;16.20;72.00;;;;;;5072470;28;20380;-89
2022/10/10 02:59:07;;;;;;;;;;;16.10;72.80;;;;;;5055572;28;20318;-89
2022/10/10 03:01:33;;;;;;;;;;;16.10;72.40;;;;;;5075938;28;20008;-89
2022/10/10 03:03:58;;;;;;;;;;;16.10;72.00;;;;;;5076029;28;20296;-88
2022/10/10 03:06:24;;;;;;;;;;;16.10;71.00;;;;;;5075988;28;19947;-89
2022/10/10 03:08:50;;;;;;;;;;;16.10;71.40;;;;;;5075962;28;20418;-89
2022/10/10 03:11:15;;;;;;;;;;;16.10;70.00;;;;;;5075865;28;20330;-89
2022/10/10 03:13:41;;;;;;;;;;;16.10;71.00;;;;;;5075836;28;19940;-90
2022/10/10 03:16:06;;;;;;;;;;;16.10;72.00;;;;;;5075826;28;19949;-89
2022/10/10 03:18:32;;;;;;;;;;;16.00;72.70;;;;;;5074599;28;19942;-89
2022/10/10 03:20:57;;;;;;;;;;;16.00;73.30;;;;;;5074983;28;19968;-89
2022/10/10 03:23:23;;;;;;;;;;;16.00;73.90;;;;;;5056729;28;19944;-89
2022/10/10 03:25:49;;;;;;;;;;;16.00;72.30;;;;;;5075573;28;20067;-89
2022/10/10 03:28:15;;;;;;;;;;;16.00;74.30;;;;;;5075529;28;19942;-89
2022/10/10 03:30:41;;;;;;;;;;;16.00;74.20;;;;;;5074636;28;19951;-89
2022/10/10 03:33:07;;;;;;;;;;;15.90;74.60;;;;;;5074660;28;19949;-89
2022/10/10 03:35:33;;;;;;;;;;;15.90;74.60;;;;;;5056935;28;19979;-89
2022/10/10 03:37:59;;;;;;;;;;;15.90;74.80;;;;;;5074491;28;20080;-89
2022/10/10 03:40:25;;;;;;;;;;;15.90;75.00;;;;;;5074424;28;19964;-89
2022/10/10 03:42:51;;;;;;;;;;;15.90;71.70;;;;;;5073933;28;19979;-89
2022/10/10 03:45:17;;;;;;;;;;;16.00;71.20;;;;;;5056640;28;20496;-89
2022/10/10 03:47:42;;;;;;;;;;;16.00;71.00;;;;;;5074411;28;20409;-88
2022/10/10 03:50:08;;;;;;;;;;;16.00;70.20;;;;;;5074490;28;20046;-89
2022/10/10 03:52:34;;;;;;;;;;;16.10;69.60;;;;;;5054908;28;20052;-90
2022/10/10 03:55:00;;;;;;;;;;;16.20;69.40;;;;;;5055023;28;19941;-89
2022/10/10 03:57:25;;;;;;;;;;;16.20;69.30;;;;;;5056048;28;19988;-89
2022/10/10 03:59:51;;;;;;;;;;;16.20;69.30;;;;;;5056654;28;20101;-89
2022/10/10 04:02:16;;;;;;;;;;;16.30;69.10;;;;;;5074968;28;20407;-88
2022/10/10 04:04:42;;;;;;;;;;;16.30;68.90;;;;;;5074886;28;19940;-88
2022/10/10 04:07:07;;;;;;;;;;;16.40;69.50;;;;;;5074865;28;19943;-89
2022/10/10 04:09:33;;;;;;;;;;;16.40;70.40;;;;;;5074452;28;20032;-89
2022/10/10 04:11:58;;;;;;;;;;;16.40;70.70;;;;;;5074716;28;20003;-89
2022/10/10 04:14:24;;;;;;;;;;;16.30;73.50;;;;;;5074964;28;19945;-90
2022/10/10 04:16:49;;;;;;;;;;;16.20;74.00;;;;;;5074696;28;19940;-89
2022/10/10 04:19:15;;;;;;;;;;;16.00;73.90;;;;;;5074610;28;19939;-88
2022/10/10 04:21:41;;;;;;;;;;;16.00;74.20;;;;;;5074550;28;20012;-89
2022/10/10 04:24:06;;;;;;;;;;;16.00;74.00;;;;;;5074524;28;20296;-89
2022/10/10 04:26:32;;;;;;;;;;;15.90;74.30;;;;;;5074400;28;20013;-90
2022/10/10 04:28:57;;;;;;;;;;;15.90;73.80;;;;;;5074364;28;19941;-89
2022/10/10 04:31:23;;;;;;;;;;;15.90;73.70;;;;;;5074622;28;19947;-89
2022/10/10 04:33:48;;;;;;;;;;;15.80;73.60;;;;;;5074322;28;19940;-89
2022/10/10 04:36:14;;;;;;;;;;;15.80;74.00;;;;;;5074216;28;19938;-89
2022/10/10 04:38:40;;;;;;;;;;;15.80;74.40;;;;;;5073281;28;20042;-89
2022/10/10 04:41:05;;;;;;;;;;;15.80;73.90;;;;;;5074127;28;19969;-89
2022/10/10 04:43:31;;;;;;;;;;;15.80;73.50;;;;;;5074085;28;20392;-89
2022/10/10 04:45:59;;;;;;;;;;;15.80;73.90;;;;;;5073971;28;19950;-89
2022/10/10 04:48:25;;;;;;;;;;;15.80;73.90;;;;;;5074010;28;19948;-88
2022/10/10 04:50:55;;;;;;;;;;;15.80;75.50;;;;;;5073800;28;20002;-89
2022/10/10 04:53:20;;;;;;;;;;;15.80;76.10;;;;;;5073984;28;19938;-89
2022/10/10 04:55:46;;;;;;;;;;;15.80;75.00;;;;;;5073894;28;19948;-89
2022/10/10 04:58:11;;;;;;;;;;;15.80;72.20;;;;;;5073847;28;19939;-90
2022/10/10 05:00:38;;;;;;;;;;;15.80;71.40;;;;;;5073408;28;20061;-89
2022/10/10 05:03:03;;;;;;;;;;;16.00;74.80;;;;;;5055117;28;20042;-90
2022/10/10 05:05:29;;;;;;;;;;;15.90;75.80;;;;;;5072705;28;20031;-89
2022/10/10 05:07:54;;;;;;;;;;;15.90;76.70;;;;;;5055757;28;20001;-90
2022/10/10 05:10:20;;;;;;;;;;;15.80;76.50;;;;;;5071743;28;20095;-89
2022/10/10 05:12:45;;;;;;;;;;;15.80;76.30;;;;;;5073583;28;19946;-89
2022/10/10 05:15:11;;;;;;;;;;;15.80;75.80;;;;;;5072867;28;20037;-90
2022/10/10 05:17:36;;;;;;;;;;;15.80;75.10;;;;;;5072498;28;20656;-90
2022/10/10 05:20:03;;;;;;;;;;;15.80;75.00;;;;;;5073259;28;20524;-90
2022/10/10 05:22:28;;;;;;;;;;;15.80;75.30;;;;;;5071920;28;19942;-89
2022/10/10 05:24:54;;;;;;;;;;;15.90;75.30;;;;;;5055410;28;20470;-89
2022/10/10 05:27:19;;;;;;;;;;;15.90;72.90;;;;;;5073088;28;19945;-89
2022/10/10 05:29:45;;;;;;;;;;;15.90;71.20;;;;;;5072556;28;19952;-89
2022/10/10 05:32:10;;;;;;;;;;;16.00;70.70;;;;;;5053620;28;19955;-90
2022/10/10 05:34:36;;;;;;;;;;;16.00;70.70;;;;;;5069593;28;20062;-89
2022/10/10 05:37:02;;;;;;;;;;;16.10;70.30;;;;;;5070602;28;20005;-89
2022/10/10 05:39:27;;;;;;;;;;;16.10;70.30;;;;;;5095158;22;19973;-90
2022/10/10 05:41:55;;;;;;;;;;;16.10;71.00;;;;;;5098279;28;21513;-90
2022/10/10 05:44:20;;;;;;;;;;;16.20;71.80;;;;;;5097342;28;19942;-89
2022/10/10 05:46:46;;;;;;;;;;;16.20;73.60;;;;;;5094515;28;20358;-90
2022/10/10 05:49:11;;;;;;;;;;;16.30;74.20;;;;;;5060789;28;19945;-90
2022/10/10 05:51:37;;;;;;;;;;;16.30;74.20;;;;;;5078732;28;20009;-89
2022/10/10 05:54:04;;;;;;;;;;;16.30;73.20;;;;;;5092075;28;19949;-90
2022/10/10 05:56:29;;;;;;;;;;;16.30;72.60;;;;;;5092235;28;19966;-89
2022/10/10 05:58:54;;;;;;;;;;;16.30;71.90;;;;;;5089966;28;19950;-89
2022/10/10 06:01:20;;;;;;;;;;;16.30;71.20;;;;;;5085919;28;20179;-90
2022/10/10 06:03:51;;;;;;;;;;;16.40;72.20;;;;;;5090622;28;19950;-89
2022/10/10 06:06:17;;;;;;;;;;;16.50;72.50;;;;;;5086194;28;19949;-89
2022/10/10 06:08:43;;;;;;;;;;;16.50;73.40;;;;;;5088341;28;20038;-90
2022/10/10 06:11:09;;;;;;;;;;;16.40;74.00;;;;;;5089700;28;20049;-89
2022/10/10 06:13:36;;;;;;;;;;;16.30;73.60;;;;;;5087706;28;19938;-89
2022/10/10 06:16:01;;;;;;;;;;;16.20;73.10;;;;;;5084269;28;19957;-89
2022/10/10 06:18:27;;;;;;;;;;;16.20;73.00;;;;;;5092929;28;20312;-89
2022/10/10 06:20:53;;;;;;;;;;;16.20;73.50;;;;;;5089364;28;19971;-89
2022/10/10 06:23:19;;;;;;;;;;;16.20;74.00;;;;;;5087625;28;19996;-89
2022/10/10 06:25:45;;;;;;;;;;;16.30;74.50;;;;;;5072914;28;19954;-89
2022/10/10 06:28:11;;;;;;;;;;;16.30;75.50;;;;;;5084146;28;19950;-90
2022/10/10 06:30:40;;;;;;;;;;;16.40;74.60;;;;;;5088849;28;20402;-90
2022/10/10 06:33:06;;;;;;;;;;;16.50;73.00;;;;;;5063863;28;20403;-89
2022/10/10 06:35:32;;;;;;;;;;;16.60;70.80;;;;;;5094855;28;19945;-89
2022/10/10 06:37:57;;;;;;;;;;;16.60;69.80;;;;;;5092765;28;20307;-90
2022/10/10 06:40:23;;;;;;;;;;;16.70;69.90;;;;;;5074398;28;19973;-89
2022/10/10 06:42:49;;;;;;;;;;;16.70;70.80;;;;;;5072140;28;19954;-89
2022/10/10 06:45:14;;;;;;;;;;;16.70;70.60;;;;;;5090641;28;19947;-89
2022/10/10 06:47:40;;;;;;;;;;;16.80;71.30;;;;;;5095295;28;19946;-90
2022/10/10 06:50:06;;;;;;;;;;;16.80;75.80;;;;;;5095002;28;19982;-89
2022/10/10 06:52:32;;;;;;;;;;;16.70;76.80;;;;;;5093508;28;20002;-88
2022/10/10 06:54:57;;;;;;;;;;;16.60;77.40;;;;;;5090428;28;19977;-88
2022/10/10 06:57:23;;;;;;;;;;;16.60;78.10;;;;;;5088360;28;19952;-89
2022/10/10 06:59:49;;;;;;;;;;;16.50;78.70;;;;;;5094028;28;19981;-89
2022/10/10 07:02:14;;;;;;;;;;;16.50;79.40;;;;;;5071730;28;20301;-89
2022/10/10 07:04:40;;;;;;;;;;;16.50;78.50;;;;;;5089785;28;19944;-89
2022/10/10 07:07:05;;;;;;;;;;;16.60;76.80;;;;;;5092374;28;20010;-88
2022/10/10 07:09:31;;;;;;;;;;;16.60;76.00;;;;;;5093163;28;20365;-89
2022/10/10 07:11:56;;;;;;;;;;;16.70;75.90;;;;;;5088690;28;19937;-89
2022/10/10 07:14:23;;;;;;;;;;;16.70;75.60;;;;;;5089981;28;19954;-89
2022/10/10 07:16:48;;;;;;;;;;;16.80;75.00;;;;;;5092790;28;19951;-90
2022/10/10 07:19:14;;;;;;;;;;;16.80;74.90;;;;;;5091253;28;19962;-89
2022/10/10 07:21:40;;;;;;;;;;;16.90;74.90;;;;;;5088763;28;20325;-89
2022/10/10 07:24:05;;;;;;;;;;;16.90;74.70;;;;;;5092121;28;19950;-89
2022/10/10 07:26:36;;;;;;;;;;;17.00;74.50;;;;;;5085469;28;19951;-88
2022/10/10 07:29:03;;;;;;;;;;;17.10;75.10;;;;;;5089908;28;19943;-88
2022/10/10 07:31:28;;;;;;;;;;;17.20;75.20;;;;;;5091950;28;20084;-89
2022/10/10 07:33:54;;;;;;;;;;;17.30;74.60;;;;;;5090987;28;20036;-88
2022/10/10 07:36:19;;;;;;;;;;;17.30;75.00;;;;;;5078328;28;20023;-90
2022/10/10 07:38:48;;;;;;;;;;;17.40;74.50;;;;;;5086682;28;20013;-89
2022/10/10 07:41:14;;;;;;;;;;;17.50;75.40;;;;;;5091144;28;19956;-89
2022/10/10 07:43:40;;;;;;;;;;;17.60;74.20;;;;;;5094417;28;20310;-89
2022/10/10 07:46:12;;;;;;;;;;;17.70;71.50;;;;;;5090760;28;19961;-89
2022/10/10 07:48:38;;;;;;;;;;;17.70;70.90;;;;;;5092392;28;20484;-89
2022/10/10 07:51:05;;;;;;;;;;;17.80;70.80;;;;;;5090313;28;19980;-88
2022/10/10 07:53:30;;;;;;;;;;;17.80;70.90;;;;;;5092185;28;19946;-89
2022/10/10 07:55:56;;;;;;;;;;;17.80;70.90;;;;;;5093538;28;19952;-89
2022/10/10 07:58:21;;;;;;;;;;;17.80;70.40;;;;;;5094517;28;19953;-89
2022/10/10 08:00:47;;;;;;;;;;;17.90;69.50;;;;;;5095090;28;19964;-89
2022/10/10 08:03:12;;;;;;;;;;;17.90;69.90;;;;;;5093462;28;20039;-90
2022/10/10 08:05:41;;;;;;;;;;;18.00;69.40;;;;;;5087913;28;19945;-90
2022/10/10 08:08:07;;;;;;;;;;;18.10;68.20;;;;;;5095215;28;19955;-90
2022/10/10 08:10:33;;;;;;;;;;;18.20;67.60;;;;;;5094450;28;19941;-89
2022/10/10 08:12:59;;;;;;;;;;;18.30;66.50;;;;;;5095187;28;19950;-89
2022/10/10 08:15:24;;;;;;;;;;;18.40;64.80;;;;;;5093913;28;19947;-88
2022/10/10 08:17:50;;;;;;;;;;;18.60;63.40;;;;;;5093159;28;19951;-87
2022/10/10 08:20:15;;;;;;;;;;;18.70;62.50;;;;;;5091804;28;19988;-89
2022/10/10 08:22:41;;;;;;;;;;;18.80;62.60;;;;;;5088886;28;20086;-88
2022/10/10 08:25:06;;;;;;;;;;;19.00;61.90;;;;;;5075270;28;19990;-89
2022/10/10 08:27:32;;;;;;;;;;;19.20;61.00;;;;;;5090572;28;20036;-88
2022/10/10 08:29:58;;;;;;;;;;;19.30;59.50;;;;;;5092472;28;21025;-89
2022/10/10 08:32:24;;;;;;;;;;;19.40;59.90;;;;;;5075608;28;20032;-88
2022/10/10 08:34:50;;;;;;;;;;;19.50;59.70;;;;;;5090868;28;19961;-89
2022/10/10 08:37:15;;;;;;;;;;;19.70;58.80;;;;;;5089058;28;19944;-89
2022/10/10 08:39:41;;;;;;;;;;;19.80;57.70;;;;;;5084814;28;20073;-90
2022/10/10 08:42:13;;;;;;;;;;;20.00;57.60;;;;;;5086871;28;19952;-89
2022/10/10 08:44:41;;;;;;;;;;;20.20;55.90;;;;;;5088193;28;20006;-89
2022/10/10 08:47:15;;;;;;;;;;;20.30;55.80;;;;;;5090011;28;19945;-90
2022/10/10 08:49:44;;;;;;;;;;;20.50;55.70;;;;;;5088631;28;19947;-89
2022/10/10 08:52:30;;;;;;;;;;;20.60;54.40;;;;;;5081547;28;20005;-89
2022/10/10 08:54:57;;;;;;;;;;;20.70;54.60;;;;;;5082599;28;19987;-90
2022/10/10 08:57:28;;;;;;;;;;;20.80;53.50;;;;;;5083677;28;19940;-90
2022/10/10 08:59:57;;;;;;;;;;;20.80;53.90;;;;;;5084117;28;19958;-90
2022/10/10 09:02:43;;;;;;;;;;;20.80;53.40;;;;;;5086598;28;20592;-89
2022/10/10 09:05:14;;;;;;;;;;;20.90;52.70;;;;;;5084135;28;19957;-89
2022/10/10 09:07:54;;;;;;;;;;;20.90;52.60;;;;;;5084160;28;20341;-90
2022/10/10 09:10:35;;;;;;;;;;;21.00;53.20;;;;;;5086220;28;20365;-90
2022/10/10 09:13:04;;;;;;;;;;;21.10;55.60;;;;;;5083524;28;19977;-91
2022/10/10 09:15:34;;;;;;;;;;;21.30;55.10;;;;;;5078151;28;19953;-89
2022/10/10 09:17:59;;;;;;;;;;;21.40;54.50;;;;;;5086104;28;20326;-90
2022/10/10 09:20:38;;;;;;;;;;;21.50;52.50;;;;;;5081048;28;19969;-88
2022/10/10 09:23:22;;;;;;;;;;;21.60;52.50;;;;;;5082795;28;20394;-89
2022/10/10 09:25:52;;;;;;;;;;;21.70;52.60;;;;;;5082986;28;19948;-90
2022/10/10 09:28:20;;;;;;;;;;;21.80;53.70;;;;;;5081761;28;19954;-88
2022/10/10 09:30:49;;;;;;;;;;;21.90;53.80;;;;;;5085018;28;19940;-89
2022/10/10 09:33:24;;;;;;;;;;;22.10;52.30;;;;;;5086673;28;19945;-91
2022/10/10 09:35:51;;;;;;;;;;;22.10;53.40;;;;;;5086293;28;20399;-89
2022/10/10 09:38:26;;;;;;;;;;;22.30;52.50;;;;;;5078843;28;19964;-89
2022/10/10 09:41:04;;;;;;;;;;;22.20;50.20;;;;;;5085562;28;20059;-91
2022/10/10 09:43:31;;;;;;;;;;;22.30;51.20;;;;;;5082781;28;19948;-89
2022/10/10 09:45:57;;;;;;;;;;;22.20;51.40;;;;;;5065361;28;20317;-89
2022/10/10 09:48:40;;;;;;;;;;;22.20;50.70;;;;;;5081661;28;20468;-89
2022/10/10 09:51:07;;;;;;;;;;;22.00;51.40;;;;;;5075963;28;19964;-89
2022/10/10 09:53:33;;;;;;;;;;;21.90;52.00;;;;;;5088101;28;20075;-89
2022/10/10 09:55:59;;;;;;;;;;;21.80;53.20;;;;;;5084045;28;20040;-89
2022/10/10 09:58:28;;;;;;;;;;;21.80;52.60;;;;;;5087055;28;19952;-90
2022/10/10 10:00:54;;;;;;;;;;;21.80;52.80;;;;;;5080597;28;19963;-90
2022/10/10 10:03:21;;;;;;;;;;;21.90;53.40;;;;;;5081098;28;19951;-91
2022/10/10 10:05:55;;;;;;;;;;;22.10;53.30;;;;;;5082953;28;19965;-90
2022/10/10 10:08:22;;;;;;;;;;;22.30;52.40;;;;;;5056226;28;19945;-90
2022/10/10 10:10:48;;;;;;;;;;;22.40;52.20;;;;;;5088484;28;20002;-89
2022/10/10 10:13:18;;;;;;;;;;;22.40;51.80;;;;;;5096941;28;20489;-89
2022/10/10 10:15:48;;;;;;;;;;;22.50;52.60;;;;;;5097205;28;19937;-89
2022/10/10 10:18:18;;;;;;;;;;;22.60;52.30;;;;;;5097418;28;19949;-90
2022/10/10 10:20:45;;;;;;;;;;;22.80;51.30;;;;;;5096987;28;19968;-89
2022/10/10 10:23:31;;;;;;;;;;;23.00;50.70;;;;;;5097089;28;19948;-90
2022/10/10 10:26:15;;;;;;;;;;;23.00;48.90;;;;;;5096172;28;19950;-89
2022/10/10 10:28:41;;;;;;;;;;;23.10;49.30;;;;;;5096977;28;19950;-90
2022/10/10 10:31:20;;;;;;;;;;;23.20;49.00;;;;;;5096884;28;20032;-91
2022/10/10 10:33:46;;;;;;;;;;;23.30;48.50;;;;;;5096903;28;19939;-90
2022/10/10 10:36:27;;;;;;;;;;;23.20;49.50;;;;;;5096931;28;20337;-91
2022/10/10 10:39:04;;;;;;;;;;;23.30;49.20;;;;;;5096699;28;19986;-89
2022/10/10 10:41:37;;;;;;;;;;;23.50;48.40;;;;;;5096970;28;19972;-89
2022/10/10 10:44:21;;;;;;;;;;;23.40;47.00;;;;;;5096749;28;19950;-90
2022/10/10 10:46:57;;;;;;;;;;;23.10;47.70;;;;;;5096698;28;19944;-90
2022/10/10 10:49:41;;;;;;;;;;;23.20;48.10;;;;;;5096382;28;19989;-90
2022/10/10 10:52:27;;;;;;;;;;;23.30;47.60;;;;;;5096001;28;19961;-90
2022/10/10 10:55:11;;;;;;;;;;;23.30;47.20;;;;;;5091687;28;19946;-90
2022/10/10 10:57:40;;;;;;;;;;;23.30;46.70;;;;;;5095408;28;19953;-90
2022/10/10 11:00:10;;;;;;;;;;;23.30;46.50;;;;;;5095777;28;19984;-89
2022/10/10 11:02:38;;;;;;;;;;;23.30;46.90;;;;;;5095940;28;20028;-90
2022/10/10 11:05:30;;;;;;;;;;;23.50;46.50;;;;;;5095119;28;20421;-90
2022/10/10 11:08:04;;;;;;;;;;;23.70;47.10;;;;;;5049438;28;19955;-89
2022/10/10 11:10:38;;;;;;;;;;;24.10;45.60;;;;;;5095810;28;20408;-90
2022/10/10 11:13:15;;;;;;;;;;;24.40;46.00;;;;;;5095697;28;20017;-90
2022/10/10 11:15:51;;;;;;;;;;;24.60;44.00;;;;;;5095852;28;20474;-89
2022/10/10 11:18:35;;;;;;;;;;;24.70;44.40;;;;;;5095176;28;19946;-90
2022/10/10 11:21:03;;;;;;;;;;;24.80;43.50;;;;;;5092748;28;19967;-89
2022/10/10 11:23:34;;;;;;;;;;;24.90;43.70;;;;;;5083580;28;19945;-89
2022/10/10 11:26:16;;;;;;;;;;;24.80;44.30;;;;;;5084645;28;19956;-90
2022/10/10 11:28:51;;;;;;;;;;;24.80;43.80;;;;;;5094446;28;20046;-90
2022/10/10 11:31:23;;;;;;;;;;;24.50;44.20;;;;;;5086797;28;19955;-90
2022/10/10 11:33:52;;;;;;;;;;;23.90;45.00;;;;;;5086748;28;19960;-90
2022/10/10 11:36:19;;;;;;;;;;;23.50;46.50;;;;;;5091593;28;19939;-90
2022/10/10 11:38:48;;;;;;;;;;;23.80;46.60;;;;;;5090891;28;19954;-90
2022/10/10 11:41:18;;;;;;;;;;;24.20;45.20;;;;;;5090336;28;20397;-89
2022/10/10 11:43:56;;;;;;;;;;;24.50;44.30;;;;;;5090920;28;19970;-90
2022/10/10 11:46:40;;;;;;;;;;;24.70;44.60;;;;;;5085972;28;20468;-90
2022/10/10 11:49:13;;;;;;;;;;;24.90;44.80;;;;;;5090965;28;19948;-90
2022/10/10 11:52:00;;;;;;;;;;;25.30;43.00;;;;;;5092071;28;20421;-91
2022/10/10 11:54:26;;;;;;;;;;;25.50;42.20;;;;;;5093978;28;20463;-90
2022/10/10 11:56:53;;;;;;;;;;;25.70;43.30;;;;;;5090762;28;20165;-88
2022/10/10 11:59:35;;;;;;;;;;;25.90;42.10;;;;;;5088571;28;20398;-88
2022/10/10 12:02:04;;;;;;;;;;;25.90;41.60;;;;;;5089077;28;19944;-90
2022/10/10 12:04:36;;;;;;;;;;;26.10;41.60;;;;;;5089214;28;19954;-89
2022/10/10 12:07:10;;;;;;;;;;;26.10;40.80;;;;;;5087096;28;19949;-89
2022/10/10 12:09:44;;;;;;;;;;;26.00;40.80;;;;;;5089974;28;19942;-89
2022/10/10 12:12:09;;;;;;;;;;;26.10;41.20;;;;;;5094307;28;20375;-89
2022/10/10 12:14:37;;;;;;;;;;;26.20;40.80;;;;;;5091161;28;21394;-89
2022/10/10 12:17:03;;;;;;;;;;;26.50;40.70;;;;;;5093069;28;19952;-90
2022/10/10 12:19:29;;;;;;;;;;;26.60;39.80;;;;;;5090559;28;20356;-90
2022/10/10 12:21:57;;;;;;;;;;;26.60;39.40;;;;;;5071689;28;20015;-90
2022/10/10 12:24:24;;;;;;;;;;;26.50;40.10;;;;;;5085474;28;19974;-90
2022/10/10 12:26:56;;;;;;;;;;;26.80;40.80;;;;;;5074210;28;19947;-90
2022/10/10 12:29:40;;;;;;;;;;;27.20;39.40;;;;;;5069972;28;19940;-89
2022/10/10 12:32:22;;;;;;;;;;;27.70;38.70;;;;;;5072885;28;19958;-89
2022/10/10 12:34:47;;;;;;;;;;;28.20;36.70;;;;;;5091808;28;19970;-91
2022/10/10 12:37:26;;;;;;;;;;;28.80;37.00;;;;;;5090427;28;20451;-89
2022/10/10 12:40:04;;;;;;;;;;;29.70;35.90;;;;;;5089434;28;20027;-90
2022/10/10 12:42:58;;;;;;;;;;;30.70;33.70;;;;;;5086999;28;19950;-90
2022/10/10 12:45:29;;;;;;;;;;;31.60;31.20;;;;;;5085685;28;20001;-90
2022/10/10 12:47:58;;;;;;;;;;;31.20;31.70;;;;;;5092888;28;20064;-90
2022/10/10 12:50:25;;;;;;;;;;;30.90;32.80;;;;;;5091608;28;19966;-89
2022/10/10 12:52:54;;;;;;;;;;;30.60;32.80;;;;;;5050723;28;19969;-90
2022/10/10 12:55:21;;;;;;;;;;;30.30;33.10;;;;;;5081008;28;19943;-91
2022/10/10 12:57:48;;;;;;;;;;;30.00;33.90;;;;;;5086670;28;19956;-90
2022/10/10 13:00:17;;;;;;;;;;;29.50;34.00;;;;;;5088961;28;19989;-89
2022/10/10 13:02:44;;;;;;;;;;;28.90;34.70;;;;;;5067303;28;20321;-90
2022/10/10 13:05:11;;;;;;;;;;;28.50;35.80;;;;;;5087145;28;19942;-89
2022/10/10 13:07:37;;;;;;;;;;;28.40;35.40;;;;;;5088945;28;20369;-89
2022/10/10 13:10:06;;;;;;;;;;;28.60;35.90;;;;;;5070138;28;20384;-90
2022/10/10 13:12:32;;;;;;;;;;;29.00;34.50;;;;;;5092355;28;19968;-90
2022/10/10 13:14:58;;;;;;;;;;;28.90;34.50;;;;;;5085256;28;19958;-90
2022/10/10 13:17:28;;;;;;;;;;;28.80;35.10;;;;;;5089369;28;19953;-90
2022/10/10 13:19:54;;;;;;;;;;;28.80;35.00;;;;;;5090292;28;19968;-90
2022/10/10 13:22:20;;;;;;;;;;;29.10;33.90;;;;;;5091813;28;19950;-91
2022/10/10 13:24:47;;;;;;;;;;;29.30;33.60;;;;;;5088137;28;20381;-91
2022/10/10 13:27:17;;;;;;;;;;;28.90;33.90;;;;;;5086868;28;20002;-90
2022/10/10 13:29:42;;;;;;;;;;;28.50;34.90;;;;;;5084383;28;20349;-91
2022/10/10 13:32:12;;;;;;;;;;;27.90;35.60;;;;;;5086565;28;19943;-91
2022/10/10 13:34:41;;;;;;;;;;;27.20;36.90;;;;;;5065769;28;20021;-91
2022/10/10 13:37:06;;;;;;;;;;;27.30;36.70;;;;;;5090805;28;20044;-91
2022/10/10 13:39:34;;;;;;;;;;;26.90;36.90;;;;;;5080694;22;20075;-91
2022/10/10 13:42:00;;;;;;;;;;;26.30;38.30;;;;;;5071854;28;20430;-92
2022/10/10 13:44:45;;;;;;;;;;;25.80;39.20;;;;;;5054218;28;20043;-91
2022/10/10 13:47:30;;;;;;;;;;;25.80;39.80;;;;;;5072366;28;19952;-91
2022/10/10 13:49:56;;;;;;;;;;;25.50;39.50;;;;;;5073135;28;20412;-92
2022/10/10 13:52:22;;;;;;;;;;;25.30;39.70;;;;;;5088403;28;20037;-93
2022/10/10 13:54:48;;;;;;;;;;;25.10;41.30;;;;;;5074707;28;19946;-93
2022/10/10 13:57:19;;;;;;;;;;;25.10;41.10;;;;;;5092916;28;19965;-91
2022/10/10 13:59:46;;;;;;;;;;;24.60;41.40;;;;;;5092654;28;19947;-91
2022/10/10 14:02:17;;;;;;;;;;;24.70;42.40;;;;;;5072620;28;19946;-91
2022/10/10 14:04:50;;;;;;;;;;;24.90;42.00;;;;;;5090843;28;20414;-90
2022/10/10 14:07:15;;;;;;;;;;;25.20;41.70;;;;;;5092013;28;19951;-90
2022/10/10 14:09:43;;;;;;;;;;;25.40;40.60;;;;;;5088838;28;19946;-91
2022/10/10 14:12:23;;;;;;;;;;;25.30;40.50;;;;;;5092969;28;19956;-91
2022/10/10 14:14:49;;;;;;;;;;;25.00;40.40;;;;;;5093059;28;19949;-90
2022/10/10 14:17:15;;;;;;;;;;;25.10;41.30;;;;;;5092495;28;20062;-91
2022/10/10 14:19:42;;;;;;;;;;;24.90;41.70;;;;;;5092905;28;19951;-91
2022/10/10 14:22:07;;;;;;;;;;;25.20;42.00;;;;;;5092079;28;19947;-92
2022/10/10 14:24:33;;;;;;;;;;;25.50;41.60;;;;;;5092250;28;19943;-91